North Dighton, Massachusetts
Current Conditions -  °F | °C
As of 8:52 AM on Sunday 25 Jan 2015 (Local Time) from KTAN Reporting Station
Overcast Overcast  
Wind Chill: 27°   Ceiling: 5000
Heat Index: 34°   Visibility: 10mi
Dew Point: 28°   Wind: 8mph
Humidity: 79%   Direction: 250°WSW
Pressure: 29.57"   Gusts: NA
Location:  41.86°N, 71.12°W
Report Text: KTAN 251352Z AUTO 25007KT 10SM BKN050 OVC060 01/M02 A2957 RMK AO2 SLP014 T00111022
Loading
Personal Weather Stations






























Interactive Weather Map New forecast layout! Learn more

10-Day Weather Forecast

Advertisements
Track Severe Weather on mobile